createdAt,value
2018-12-19T00:01:23.015Z,28.60
2018-12-19T00:03:51.670Z,30.87
2018-12-19T00:06:20.449Z,29.87
2018-12-19T00:08:49.549Z,30.47
2018-12-19T00:11:18.386Z,30.60
2018-12-19T00:13:47.002Z,30.00
2018-12-19T00:16:15.630Z,30.03
2018-12-19T00:18:44.252Z,32.13
2018-12-19T00:21:12.928Z,32.60
2018-12-19T00:23:41.602Z,27.53
2018-12-19T00:26:10.229Z,32.23
2018-12-19T00:28:38.855Z,29.33
2018-12-19T00:31:07.493Z,32.17
2018-12-19T00:33:36.123Z,29.63
2018-12-19T00:36:04.801Z,30.97
2018-12-19T00:38:33.447Z,30.03
2018-12-19T00:41:02.062Z,33.43
2018-12-19T00:43:30.700Z,29.90
2018-12-19T00:45:59.577Z,29.53
2018-12-19T00:48:28.718Z,27.20
2018-12-19T00:50:57.447Z,29.90
2018-12-19T00:53:26.259Z,31.23
2018-12-19T00:55:54.868Z,32.60
2018-12-19T00:58:23.793Z,31.23
2018-12-19T01:00:52.491Z,31.20
2018-12-19T01:03:21.432Z,29.80
2018-12-19T01:05:50.373Z,30.13
2018-12-19T01:08:20.524Z,28.17
2018-12-19T01:10:49.136Z,25.00
2018-12-19T01:13:17.755Z,32.87
2018-12-19T01:15:46.407Z,29.80
2018-12-19T01:18:15.167Z,29.00
2018-12-19T01:20:43.830Z,30.53
2018-12-19T01:23:12.494Z,31.00
2018-12-19T01:25:41.123Z,31.17
2018-12-19T01:28:09.777Z,27.10
2018-12-19T01:30:38.419Z,28.20
2018-12-19T01:33:07.010Z,27.73
2018-12-19T01:35:35.946Z,25.40
2018-12-19T01:38:04.599Z,27.50
2018-12-19T01:40:33.196Z,25.77
2018-12-19T01:43:01.816Z,28.40
2018-12-19T01:45:30.432Z,27.43
2018-12-19T01:47:59.119Z,26.23
2018-12-19T01:50:27.751Z,26.40
2018-12-19T01:52:56.347Z,25.90
2018-12-19T01:55:25.038Z,26.93
2018-12-19T01:57:53.622Z,26.33
2018-12-19T02:00:26.456Z,29.60
2018-12-19T02:02:55.020Z,28.33
2018-12-19T02:05:23.620Z,29.40
2018-12-19T02:07:52.212Z,27.30
2018-12-19T02:10:20.815Z,25.60
2018-12-19T02:12:49.496Z,25.20
2018-12-19T02:15:18.107Z,25.47
2018-12-19T02:17:46.772Z,29.00
2018-12-19T02:20:15.430Z,26.90
2018-12-19T02:22:44.627Z,30.33
2018-12-19T02:25:13.372Z,29.77
2018-12-19T02:27:42.106Z,27.80
2018-12-19T02:30:10.714Z,28.23
2018-12-19T02:32:39.308Z,26.43
2018-12-19T02:35:07.986Z,25.43
2018-12-19T02:37:36.630Z,28.43
2018-12-19T02:40:05.423Z,28.17
2018-12-19T02:42:34.032Z,23.43
2018-12-19T02:45:02.659Z,22.90
2018-12-19T02:47:31.291Z,24.53
2018-12-19T02:49:59.876Z,24.73
2018-12-19T02:52:28.538Z,26.30
2018-12-19T02:54:57.123Z,24.30
2018-12-19T02:57:25.741Z,23.73
2018-12-19T02:59:54.430Z,24.73
2018-12-19T03:02:23.028Z,23.27
2018-12-19T03:04:51.618Z,27.00
2018-12-19T03:07:20.244Z,23.77
2018-12-19T03:09:48.815Z,22.47
2018-12-19T03:12:17.437Z,27.00
2018-12-19T03:14:46.089Z,23.67
2018-12-19T03:17:15.055Z,23.37
2018-12-19T03:19:43.738Z,24.57
2018-12-19T03:22:12.416Z,25.23
2018-12-19T03:24:41.039Z,24.17
2018-12-19T03:27:09.623Z,24.43
2018-12-19T03:29:38.284Z,26.67
2018-12-19T03:32:06.871Z,25.80
2018-12-19T03:34:35.470Z,24.60
2018-12-19T03:37:04.216Z,26.83
2018-12-19T03:39:32.804Z,24.97
2018-12-19T03:42:01.359Z,25.20
2018-12-19T03:44:30.570Z,21.73
2018-12-19T03:46:59.198Z,24.90
2018-12-19T03:49:28.026Z,21.97
2018-12-19T03:51:56.674Z,26.17
2018-12-19T03:54:25.536Z,24.63
2018-12-19T03:56:54.486Z,26.77
2018-12-19T03:59:23.061Z,24.00
2018-12-19T04:01:51.706Z,22.30
2018-12-19T04:04:20.344Z,22.70
2018-12-19T04:06:48.918Z,23.77
2018-12-19T04:09:17.567Z,30.23
2018-12-19T04:11:46.287Z,26.20
2018-12-19T04:14:15.370Z,25.87
2018-12-19T04:16:44.003Z,25.40
2018-12-19T04:19:12.978Z,24.63
2018-12-19T04:21:41.757Z,23.37
2018-12-19T04:24:10.353Z,24.57
2018-12-19T04:26:38.971Z,26.50
2018-12-19T04:29:07.698Z,24.83
2018-12-19T04:31:36.635Z,26.10
2018-12-19T04:34:05.210Z,26.43
2018-12-19T04:36:33.940Z,26.30
2018-12-19T04:39:02.872Z,27.23
2018-12-19T04:41:31.516Z,26.73
2018-12-19T04:44:00.218Z,27.13
2018-12-19T04:46:28.886Z,25.33
2018-12-19T04:48:57.540Z,28.03
2018-12-19T04:51:26.672Z,26.90
2018-12-19T04:53:55.321Z,24.43
2018-12-19T04:56:23.916Z,26.47
2018-12-19T04:58:52.523Z,26.13
2018-12-19T05:01:21.395Z,30.37
2018-12-19T05:03:50.492Z,27.63
2018-12-19T05:06:20.004Z,27.13
2018-12-19T05:08:48.958Z,27.97
2018-12-19T05:11:17.665Z,24.80
2018-12-19T05:13:46.614Z,22.80
2018-12-19T05:16:15.372Z,24.90
2018-12-19T05:18:43.998Z,25.40
2018-12-19T05:21:12.688Z,24.83
2018-12-19T05:23:41.274Z,25.17
2018-12-19T05:26:09.846Z,24.40
2018-12-19T05:28:38.522Z,25.17
2018-12-19T05:31:07.114Z,25.23
2018-12-19T05:33:36.271Z,24.73
2018-12-19T05:36:05.108Z,24.13
2018-12-19T05:38:33.693Z,24.53
2018-12-19T05:41:02.273Z,21.87
2018-12-19T05:43:30.947Z,24.60
2018-12-19T05:45:59.572Z,23.13
2018-12-19T05:48:28.405Z,24.80
2018-12-19T05:50:57.081Z,25.57
2018-12-19T05:53:25.694Z,24.90
2018-12-19T05:55:54.496Z,22.97
2018-12-19T05:58:23.164Z,28.85
2018-12-19T06:00:51.756Z,26.50
2018-12-19T06:03:20.371Z,27.03
2018-12-19T06:05:49.694Z,24.20
2018-12-19T06:08:18.330Z,26.63
2018-12-19T06:10:46.956Z,24.07
2018-12-19T06:13:15.714Z,23.83
2018-12-19T06:15:44.380Z,25.23
2018-12-19T06:18:12.976Z,23.73
2018-12-19T06:20:41.598Z,20.20
2018-12-19T06:23:10.254Z,24.57
2018-12-19T06:25:38.867Z,24.50
2018-12-19T06:28:07.562Z,24.33
2018-12-19T06:30:36.303Z,26.97
2018-12-19T06:33:04.903Z,27.20
2018-12-19T06:35:33.547Z,24.60
2018-12-19T06:38:02.199Z,24.67
2018-12-19T06:40:32.806Z,26.87
2018-12-19T06:43:01.634Z,25.43
2018-12-19T06:45:30.239Z,24.97
2018-12-19T06:47:58.892Z,28.43
2018-12-19T06:50:27.533Z,22.87
2018-12-19T06:52:56.172Z,25.13
2018-12-19T06:55:24.840Z,26.23
2018-12-19T06:57:53.451Z,27.20
2018-12-19T07:00:22.103Z,26.67
2018-12-19T07:02:50.823Z,27.23
2018-12-19T07:05:20.028Z,25.77
2018-12-19T07:07:48.757Z,29.83
2018-12-19T07:10:17.401Z,25.20
2018-12-19T07:12:45.988Z,25.87
2018-12-19T07:15:14.652Z,22.07
2018-12-19T07:17:43.787Z,25.50
2018-12-19T07:20:12.732Z,27.40
2018-12-19T07:22:41.385Z,25.30
2018-12-19T07:25:10.027Z,24.80
2018-12-19T07:27:38.973Z,23.77
2018-12-19T07:30:08.508Z,24.43
2018-12-19T07:32:37.111Z,23.67
2018-12-19T07:35:05.998Z,23.87
2018-12-19T07:37:34.677Z,23.57
2018-12-19T07:40:03.472Z,21.57
2018-12-19T07:42:32.211Z,24.13
2018-12-19T07:45:01.472Z,21.17
2018-12-19T07:47:30.425Z,23.33
2018-12-19T07:49:59.401Z,20.80
2018-12-19T07:52:28.258Z,21.73
2018-12-19T07:54:57.297Z,21.03
2018-12-19T07:57:26.261Z,23.10
2018-12-19T07:59:55.330Z,23.93
2018-12-19T08:02:24.364Z,21.27
2018-12-19T08:04:53.310Z,21.70
2018-12-19T08:07:22.136Z,21.30
2018-12-19T08:09:51.083Z,20.27
2018-12-19T08:12:19.934Z,22.53
2018-12-19T08:14:50.786Z,22.37
2018-12-19T08:17:19.627Z,19.10
2018-12-19T08:19:48.371Z,18.43
2018-12-19T08:22:17.022Z,20.40
2018-12-19T08:24:45.759Z,17.43
2018-12-19T08:27:14.507Z,19.43
2018-12-19T08:29:43.670Z,18.43
2018-12-19T08:32:12.682Z,19.57
2018-12-19T08:34:41.561Z,18.93
2018-12-19T08:37:11.000Z,19.00
2018-12-19T08:39:40.105Z,17.40
2018-12-19T08:42:09.371Z,17.73
2018-12-19T08:44:38.215Z,19.17
2018-12-19T08:47:07.059Z,17.70
2018-12-19T08:49:35.762Z,16.80
2018-12-19T08:52:04.659Z,19.53
2018-12-19T08:54:33.347Z,24.70
2018-12-19T08:57:02.313Z,17.33
2018-12-19T08:59:31.215Z,19.83
2018-12-19T09:02:00.224Z,16.90
2018-12-19T09:04:29.084Z,19.97
2018-12-19T09:06:58.103Z,21.47
2018-12-19T09:09:27.129Z,17.20
2018-12-19T09:11:55.917Z,15.37
2018-12-19T09:14:25.089Z,16.77
2018-12-19T09:16:54.084Z,17.13
2018-12-19T09:19:22.993Z,16.87
2018-12-19T09:21:52.033Z,17.87
2018-12-19T09:24:20.848Z,17.93
2018-12-19T09:26:49.842Z,20.93
2018-12-19T09:29:18.957Z,21.80
2018-12-19T09:31:48.619Z,18.37
2018-12-19T09:34:17.445Z,21.23
2018-12-19T09:36:46.164Z,22.27
2018-12-19T09:39:15.389Z,20.20
2018-12-19T09:41:44.221Z,19.23
2018-12-19T09:44:12.983Z,27.40
2018-12-19T09:46:41.972Z,20.43
2018-12-19T09:49:12.638Z,19.50
2018-12-19T09:51:41.577Z,18.30
2018-12-19T09:54:10.388Z,21.00
2018-12-19T09:56:39.283Z,17.83
2018-12-19T09:59:08.097Z,18.90
2018-12-19T10:01:37.093Z,20.87
2018-12-19T10:04:06.525Z,18.10
2018-12-19T10:06:35.116Z,17.63
2018-12-19T10:09:05.388Z,16.30
2018-12-19T10:11:34.481Z,17.53
2018-12-19T10:14:03.231Z,16.17
2018-12-19T10:16:32.189Z,15.80
2018-12-19T10:19:01.136Z,15.43
2018-12-19T10:21:30.232Z,15.17
2018-12-19T10:23:59.054Z,17.33
2018-12-19T10:26:27.616Z,20.30
2018-12-19T10:28:56.325Z,17.93
2018-12-19T10:31:25.328Z,18.97
2018-12-19T10:33:54.049Z,16.47
2018-12-19T10:36:38.411Z,15.23
2018-12-19T10:39:13.034Z,16.70
2018-12-19T10:41:42.015Z,19.33
2018-12-19T10:44:11.346Z,16.70
2018-12-19T10:46:40.506Z,23.37
2018-12-19T10:49:09.241Z,17.73
2018-12-19T10:51:38.231Z,20.97
2018-12-19T10:54:07.143Z,22.73
2018-12-19T10:56:36.181Z,25.33
2018-12-19T10:59:05.331Z,18.97
2018-12-19T11:01:34.164Z,18.57
2018-12-19T11:04:03.660Z,16.03
2018-12-19T11:06:32.372Z,14.90
2018-12-19T11:09:01.178Z,24.00
2018-12-19T11:11:32.471Z,25.03
2018-12-19T11:14:00.697Z,21.00
2018-12-19T11:16:29.929Z,19.30
2018-12-19T11:18:58.782Z,22.33
2018-12-19T11:21:27.729Z,21.07
2018-12-19T11:23:56.922Z,25.60
2018-12-19T11:26:26.828Z,22.60
2018-12-19T11:28:55.614Z,24.57
2018-12-19T11:31:24.822Z,19.33
2018-12-19T11:33:53.666Z,14.93
2018-12-19T11:36:22.509Z,15.00
2018-12-19T11:38:51.719Z,12.37
2018-12-19T11:41:20.499Z,16.73
2018-12-19T11:43:49.386Z,14.43
2018-12-19T11:46:18.338Z,13.67
2018-12-19T11:48:47.362Z,13.70
2018-12-19T11:51:16.272Z,18.27
2018-12-19T11:53:45.414Z,21.57
2018-12-19T11:56:14.183Z,25.40
2018-12-19T11:58:43.138Z,25.53
2018-12-19T12:01:12.432Z,26.17
2018-12-19T12:03:41.720Z,17.90
2018-12-19T12:06:10.783Z,19.43
2018-12-19T12:08:39.822Z,17.50
2018-12-19T12:11:08.702Z,18.07
2018-12-19T12:13:37.706Z,23.07
2018-12-19T12:16:06.599Z,20.03
2018-12-19T12:18:35.537Z,17.77
2018-12-19T12:21:04.618Z,20.00
2018-12-19T12:23:33.480Z,25.77
2018-12-19T12:26:02.672Z,32.37
2018-12-19T12:28:31.876Z,32.30
2018-12-19T12:31:01.119Z,39.70
2018-12-19T12:33:30.048Z,34.03
2018-12-19T12:35:59.270Z,26.40
2018-12-19T12:38:33.907Z,26.93
2018-12-19T12:40:59.200Z,35.03
2018-12-19T12:43:28.011Z,26.97
2018-12-19T12:45:56.961Z,35.27
2018-12-19T12:48:26.053Z,31.23
2018-12-19T12:50:54.757Z,33.47
2018-12-19T12:53:23.646Z,30.93
2018-12-19T12:55:52.263Z,24.43
2018-12-19T12:58:21.124Z,20.77
2018-12-19T13:00:50.015Z,26.27
2018-12-19T13:03:19.047Z,21.50
2018-12-19T13:05:48.130Z,17.40
2018-12-19T13:08:16.819Z,16.90
2018-12-19T13:10:45.446Z,20.17
2018-12-19T13:13:14.404Z,14.93
2018-12-19T13:15:47.975Z,17.97
2018-12-19T13:18:16.928Z,16.13
2018-12-19T13:20:45.728Z,20.30
2018-12-19T13:23:14.834Z,21.13
2018-12-19T13:25:43.741Z,18.57
2018-12-19T13:28:12.657Z,18.93
2018-12-19T13:30:41.823Z,19.80
2018-12-19T13:33:10.923Z,17.70
2018-12-19T13:35:39.554Z,19.73
2018-12-19T13:38:08.606Z,18.77
2018-12-19T13:40:37.619Z,23.43
2018-12-19T13:43:06.508Z,20.70
2018-12-19T13:45:35.326Z,19.23
2018-12-19T13:48:04.256Z,24.63
2018-12-19T13:50:32.870Z,19.90
2018-12-19T13:53:01.516Z,23.57
2018-12-19T13:55:30.722Z,21.47
2018-12-19T13:57:59.301Z,19.90
2018-12-19T14:00:28.060Z,22.93
2018-12-19T14:02:56.749Z,21.40
2018-12-19T14:05:25.343Z,20.97
2018-12-19T14:07:53.934Z,22.37
2018-12-19T14:10:22.547Z,22.43
2018-12-19T14:12:51.414Z,22.57
2018-12-19T14:15:21.361Z,20.33
2018-12-19T14:17:49.943Z,20.30
2018-12-19T14:20:18.524Z,18.87
2018-12-19T14:22:47.111Z,19.53
2018-12-19T14:25:15.734Z,19.53
2018-12-19T14:27:44.452Z,19.73
2018-12-19T14:30:13.085Z,15.27
2018-12-19T14:32:41.714Z,16.33
2018-12-19T14:35:10.374Z,17.93
2018-12-19T14:37:39.262Z,15.63
2018-12-19T14:40:07.895Z,17.07
2018-12-19T14:42:36.642Z,21.43
2018-12-19T14:45:06.815Z,16.10
2018-12-19T14:47:35.651Z,16.03
2018-12-19T14:50:04.627Z,16.87
2018-12-19T14:52:33.305Z,15.87
2018-12-19T14:55:02.266Z,16.37
2018-12-19T14:57:31.184Z,15.77
2018-12-19T15:00:00.201Z,17.93
2018-12-19T15:02:28.804Z,16.33
2018-12-19T15:04:57.372Z,16.27
2018-12-19T15:07:26.033Z,21.20
2018-12-19T15:09:54.621Z,16.20
2018-12-19T15:12:25.884Z,15.47
2018-12-19T15:14:53.881Z,17.03
2018-12-19T15:17:22.508Z,16.80
2018-12-19T15:19:51.345Z,17.20
2018-12-19T15:22:19.934Z,17.50
2018-12-19T15:24:48.515Z,18.73
2018-12-19T15:27:17.162Z,17.87
2018-12-19T15:29:45.743Z,19.83
2018-12-19T15:32:14.338Z,18.50
2018-12-19T15:34:43.063Z,18.90
2018-12-19T15:37:11.689Z,17.13
2018-12-19T15:39:40.335Z,18.70
2018-12-19T15:42:09.114Z,18.67
2018-12-19T15:44:37.692Z,18.67
2018-12-19T15:47:06.312Z,18.60
2018-12-19T15:49:34.950Z,18.87
2018-12-19T15:52:03.566Z,19.47
2018-12-19T15:54:32.187Z,18.87
2018-12-19T15:57:00.788Z,15.77
2018-12-19T15:59:29.446Z,15.23
2018-12-19T16:01:58.159Z,16.97
2018-12-19T16:04:26.782Z,17.87
2018-12-19T16:06:55.386Z,17.03
2018-12-19T16:09:24.041Z,19.17
2018-12-19T16:11:52.667Z,18.07
2018-12-19T16:14:21.264Z,15.73
2018-12-19T16:16:49.959Z,18.43
2018-12-19T16:19:18.599Z,16.50
2018-12-19T16:21:47.200Z,20.43
2018-12-19T16:24:15.857Z,18.17
2018-12-19T16:26:44.521Z,20.57
2018-12-19T16:29:13.126Z,21.00
2018-12-19T16:31:41.783Z,19.87
2018-12-19T16:34:10.423Z,21.47
2018-12-19T16:36:39.343Z,17.43
2018-12-19T16:39:09.060Z,23.20
2018-12-19T16:41:37.716Z,20.00
2018-12-19T16:44:06.295Z,22.27
2018-12-19T16:46:35.013Z,21.53
2018-12-19T16:49:03.673Z,22.23
2018-12-19T16:51:32.270Z,26.80
2018-12-19T16:54:00.864Z,23.17
2018-12-19T16:56:29.526Z,23.30
2018-12-19T16:58:58.142Z,24.37
2018-12-19T17:01:26.805Z,24.60
2018-12-19T17:03:55.499Z,23.97
2018-12-19T17:06:24.086Z,23.27
2018-12-19T17:08:52.699Z,24.00
2018-12-19T17:11:21.394Z,25.87
2018-12-19T17:13:50.039Z,25.77
2018-12-19T17:16:18.721Z,26.40
2018-12-19T17:18:47.467Z,22.83
2018-12-19T17:21:16.100Z,22.07
2018-12-19T17:23:44.747Z,32.23
2018-12-19T17:26:13.428Z,23.10
2018-12-19T17:28:42.089Z,23.07
2018-12-19T17:31:10.727Z,29.20
2018-12-19T17:33:39.386Z,27.13
2018-12-19T17:36:08.022Z,26.73
2018-12-19T17:38:37.005Z,27.50
2018-12-19T17:41:05.663Z,29.80
2018-12-19T17:43:34.276Z,24.93
2018-12-19T17:46:02.924Z,28.73
2018-12-19T17:48:31.630Z,26.97
2018-12-19T17:51:00.253Z,23.40
2018-12-19T17:53:28.893Z,24.47
2018-12-19T17:55:57.564Z,24.17
2018-12-19T17:58:26.136Z,24.97
2018-12-19T18:00:54.936Z,27.33
2018-12-19T18:03:23.548Z,31.90
2018-12-19T18:05:52.232Z,28.07
2018-12-19T18:08:20.832Z,24.27
2018-12-19T18:10:49.518Z,27.97
2018-12-19T18:13:18.175Z,31.03
2018-12-19T18:15:46.910Z,32.33
2018-12-19T18:18:15.575Z,30.43
2018-12-19T18:20:44.220Z,28.63
2018-12-19T18:23:12.854Z,29.80
2018-12-19T18:25:42.043Z,30.50
2018-12-19T18:28:10.723Z,28.73
2018-12-19T18:30:39.320Z,27.10
2018-12-19T18:33:07.967Z,31.83
2018-12-19T18:35:36.699Z,28.10
2018-12-19T18:38:05.397Z,25.80
2018-12-19T18:40:34.149Z,28.50
2018-12-19T18:43:02.839Z,29.27
2018-12-19T18:45:31.490Z,27.00
2018-12-19T18:48:00.216Z,25.43
2018-12-19T18:50:28.859Z,29.57
2018-12-19T18:52:57.487Z,32.33
2018-12-19T18:55:26.119Z,27.10
2018-12-19T18:57:54.959Z,31.07
2018-12-19T19:00:28.865Z,29.53
2018-12-19T19:02:57.552Z,28.70
2018-12-19T19:05:26.233Z,27.17
2018-12-19T19:07:54.948Z,27.10
2018-12-19T19:10:23.778Z,28.90
2018-12-19T19:12:52.409Z,28.17
2018-12-19T19:15:21.081Z,27.43
2018-12-19T19:17:49.730Z,29.00
2018-12-19T19:20:18.399Z,30.33
2018-12-19T19:22:47.057Z,29.20
2018-12-19T19:25:15.855Z,28.30
2018-12-19T19:27:44.575Z,31.73
2018-12-19T19:30:13.227Z,31.90
2018-12-19T19:32:41.898Z,29.23
2018-12-19T19:35:10.565Z,34.43
2018-12-19T19:37:39.215Z,31.03
2018-12-19T19:40:09.318Z,32.20
2018-12-19T19:42:38.191Z,35.40
2018-12-19T19:45:07.380Z,33.00
2018-12-19T19:47:36.050Z,34.47
2018-12-19T19:50:05.243Z,34.83
2018-12-19T19:52:33.878Z,33.93
2018-12-19T19:55:02.515Z,31.70
2018-12-19T19:57:31.239Z,37.53
2018-12-19T19:59:59.897Z,32.63
2018-12-19T20:02:28.573Z,34.43
2018-12-19T20:04:57.308Z,34.27
2018-12-19T20:07:25.998Z,36.80
2018-12-19T20:09:54.629Z,38.93
2018-12-19T20:12:23.346Z,36.83
2018-12-19T20:14:52.045Z,41.57
2018-12-19T20:17:27.215Z,37.10
2018-12-19T20:19:55.951Z,37.50
2018-12-19T20:22:24.607Z,40.80
2018-12-19T20:24:53.309Z,40.67
2018-12-19T20:27:21.998Z,43.77
2018-12-19T20:29:50.749Z,41.67
2018-12-19T20:32:19.452Z,39.57
2018-12-19T20:34:48.192Z,43.47
2018-12-19T20:37:17.246Z,35.60
2018-12-19T20:39:45.849Z,41.97
2018-12-19T20:42:14.515Z,40.07
2018-12-19T20:44:43.139Z,42.17
2018-12-19T20:47:11.804Z,44.27
2018-12-19T20:49:40.550Z,38.63
2018-12-19T20:52:09.243Z,43.20
2018-12-19T20:54:37.970Z,40.03
2018-12-19T20:57:06.620Z,39.97
2018-12-19T20:59:35.303Z,41.67
2018-12-19T21:02:04.080Z,42.97
2018-12-19T21:04:32.897Z,42.37
2018-12-19T21:07:01.579Z,41.83
2018-12-19T21:09:30.208Z,50.33
2018-12-19T21:11:58.845Z,47.83
2018-12-19T21:14:27.551Z,44.67
2018-12-19T21:17:01.507Z,44.60
2018-12-19T21:19:30.211Z,46.93
2018-12-19T21:21:58.839Z,47.73
2018-12-19T21:24:27.492Z,47.73
2018-12-19T21:26:56.199Z,45.23
2018-12-19T21:29:24.882Z,47.80
2018-12-19T21:31:53.546Z,51.37
2018-12-19T21:34:22.249Z,47.77
2018-12-19T21:36:50.840Z,50.07
2018-12-19T21:39:25.904Z,46.93
2018-12-19T21:41:54.521Z,47.83
2018-12-19T21:44:23.147Z,50.60
2018-12-19T21:46:51.945Z,48.07
2018-12-19T21:49:20.659Z,55.90
2018-12-19T21:51:49.458Z,51.30
2018-12-19T21:54:18.130Z,51.77
2018-12-19T21:56:46.850Z,51.87
2018-12-19T21:59:15.485Z,49.60
2018-12-19T22:01:44.252Z,55.80
2018-12-19T22:04:13.020Z,57.57
2018-12-19T22:06:41.673Z,59.03
2018-12-19T22:09:10.428Z,59.63
2018-12-19T22:11:39.458Z,57.80
2018-12-19T22:14:08.317Z,56.70
2018-12-19T22:16:42.325Z,57.47
2018-12-19T22:19:11.205Z,55.87
2018-12-19T22:21:39.922Z,60.30
2018-12-19T22:24:08.725Z,67.40
2018-12-19T22:26:37.470Z,63.27
2018-12-19T22:29:06.132Z,58.27
2018-12-19T22:31:35.249Z,61.80
2018-12-19T22:34:03.915Z,74.40
2018-12-19T22:36:32.605Z,71.30
2018-12-19T22:39:01.322Z,57.13
2018-12-19T22:41:30.168Z,64.40
2018-12-19T22:43:58.965Z,64.93
2018-12-19T22:46:27.611Z,62.50
2018-12-19T22:48:56.344Z,69.03
2018-12-19T22:51:25.032Z,68.67
2018-12-19T22:53:53.773Z,65.73
2018-12-19T22:56:22.498Z,60.37
2018-12-19T22:58:51.383Z,61.43
2018-12-19T23:01:25.560Z,55.57
2018-12-19T23:04:08.758Z,61.53
2018-12-19T23:06:37.722Z,64.47
2018-12-19T23:09:07.469Z,64.33
2018-12-19T23:11:36.486Z,61.03
2018-12-19T23:14:05.449Z,60.83
2018-12-19T23:16:34.153Z,60.67
2018-12-19T23:19:03.257Z,59.77
2018-12-19T23:21:31.988Z,56.23
2018-12-19T23:24:00.696Z,57.20
2018-12-19T23:26:29.370Z,59.03
2018-12-19T23:29:04.221Z,60.17
2018-12-19T23:31:33.148Z,57.27
2018-12-19T23:34:01.977Z,58.10
2018-12-19T23:36:30.573Z,60.20
2018-12-19T23:38:59.184Z,53.50
2018-12-19T23:41:28.056Z,52.27
2018-12-19T23:43:56.839Z,53.43
2018-12-19T23:46:25.500Z,54.63
2018-12-19T23:48:54.242Z,60.27
2018-12-19T23:51:22.935Z,48.30
2018-12-19T23:53:51.654Z,50.40
2018-12-19T23:56:20.312Z,51.30
2018-12-19T23:58:49.101Z,50.57
